sensor_id;sensor_type;location;lat;lon;timestamp;pressure;altitude;pressure_sealevel;temperature;humidity
4745;BME280;2386;42.138;24.746;2023-12-28T00:02:00;100732.91;;;9.79;73.44
4745;BME280;2386;42.138;24.746;2023-12-28T00:04:25;100737.19;;;9.67;74.39
4745;BME280;2386;42.138;24.746;2023-12-28T00:06:53;100729.69;;;9.62;72.98
4745;BME280;2386;42.138;24.746;2023-12-28T00:09:18;100745.69;;;9.57;74.91
4745;BME280;2386;42.138;24.746;2023-12-28T00:11:43;100744.16;;;9.48;75.26
4745;BME280;2386;42.138;24.746;2023-12-28T00:14:09;100748.31;;;9.44;76.10
4745;BME280;2386;42.138;24.746;2023-12-28T00:16:34;100746.28;;;9.52;74.88
4745;BME280;2386;42.138;24.746;2023-12-28T00:19:02;100756.34;;;9.59;74.54
4745;BME280;2386;42.138;24.746;2023-12-28T00:21:29;100763.38;;;9.53;75.30
4745;BME280;2386;42.138;24.746;2023-12-28T00:23:55;100769.81;;;9.52;75.25
4745;BME280;2386;42.138;24.746;2023-12-28T00:26:20;100774.22;;;9.53;74.92
4745;BME280;2386;42.138;24.746;2023-12-28T00:28:47;100771.38;;;9.40;75.37
4745;BME280;2386;42.138;24.746;2023-12-28T00:31:13;100775.66;;;9.28;76.03
4745;BME280;2386;42.138;24.746;2023-12-28T00:33:38;100774.81;;;9.27;76.34
4745;BME280;2386;42.138;24.746;2023-12-28T00:36:03;100793.16;;;9.10;77.45
4745;BME280;2386;42.138;24.746;2023-12-28T00:38:29;100796.44;;;9.06;78.58
4745;BME280;2386;42.138;24.746;2023-12-28T00:40:54;100803.41;;;9.15;78.70
4745;BME280;2386;42.138;24.746;2023-12-28T00:43:20;100808.25;;;9.19;78.46
4745;BME280;2386;42.138;24.746;2023-12-28T00:45:45;100802.66;;;9.21;78.49
4745;BME280;2386;42.138;24.746;2023-12-28T00:48:10;100801.31;;;9.32;77.87
4745;BME280;2386;42.138;24.746;2023-12-28T00:50:36;100809.44;;;9.32;77.02
4745;BME280;2386;42.138;24.746;2023-12-28T00:53:01;100814.78;;;9.25;78.33
4745;BME280;2386;42.138;24.746;2023-12-28T00:55:27;100808.44;;;9.18;78.89
4745;BME280;2386;42.138;24.746;2023-12-28T00:57:53;100811.47;;;9.30;78.24
4745;BME280;2386;42.138;24.746;2023-12-28T01:00:18;100794.47;;;9.36;76.11
4745;BME280;2386;42.138;24.746;2023-12-28T01:02:43;100814.53;;;9.41;76.54
4745;BME280;2386;42.138;24.746;2023-12-28T01:05:12;100815.63;;;9.47;74.29
4745;BME280;2386;42.138;24.746;2023-12-28T01:07:38;100819.63;;;9.51;74.44
4745;BME280;2386;42.138;24.746;2023-12-28T01:10:03;100815.88;;;9.52;75.33
4745;BME280;2386;42.138;24.746;2023-12-28T01:12:29;100817.53;;;9.32;76.56
4745;BME280;2386;42.138;24.746;2023-12-28T01:14:54;100823.84;;;9.17;77.99
4745;BME280;2386;42.138;24.746;2023-12-28T01:17:20;100821.53;;;9.14;78.30
4745;BME280;2386;42.138;24.746;2023-12-28T01:19:45;100819.59;;;9.08;78.49
4745;BME280;2386;42.138;24.746;2023-12-28T01:22:11;100811.69;;;9.28;77.19
4745;BME280;2386;42.138;24.746;2023-12-28T01:24:36;100805.44;;;9.28;78.09
4745;BME280;2386;42.138;24.746;2023-12-28T01:27:02;100810.06;;;9.12;78.23
4745;BME280;2386;42.138;24.746;2023-12-28T01:29:27;100818.75;;;9.08;79.34
4745;BME280;2386;42.138;24.746;2023-12-28T01:31:52;100817.91;;;9.07;79.64
4745;BME280;2386;42.138;24.746;2023-12-28T01:34:18;100814.31;;;9.21;76.93
4745;BME280;2386;42.138;24.746;2023-12-28T01:36:44;100809.03;;;9.13;77.89
4745;BME280;2386;42.138;24.746;2023-12-28T01:39:10;100812.16;;;8.96;80.16
4745;BME280;2386;42.138;24.746;2023-12-28T01:41:40;100809.91;;;8.99;79.35
4745;BME280;2386;42.138;24.746;2023-12-28T01:44:06;100808.56;;;8.88;80.31
4745;BME280;2386;42.138;24.746;2023-12-28T01:46:32;100816.88;;;8.87;80.22
4745;BME280;2386;42.138;24.746;2023-12-28T01:48:58;100818.56;;;8.88;80.77
4745;BME280;2386;42.138;24.746;2023-12-28T01:51:24;100819.97;;;8.84;79.67
4745;BME280;2386;42.138;24.746;2023-12-28T01:53:51;100815.56;;;8.83;78.98
4745;BME280;2386;42.138;24.746;2023-12-28T01:56:18;100808.88;;;8.79;78.35
4745;BME280;2386;42.138;24.746;2023-12-28T01:58:46;100827.34;;;8.61;80.78
4745;BME280;2386;42.138;24.746;2023-12-28T02:01:14;100826.22;;;8.70;79.32
4745;BME280;2386;42.138;24.746;2023-12-28T02:03:39;100829.78;;;8.55;81.31
4745;BME280;2386;42.138;24.746;2023-12-28T02:06:07;100821.31;;;8.44;81.85
4745;BME280;2386;42.138;24.746;2023-12-28T02:08:32;100826.53;;;8.45;81.55
4745;BME280;2386;42.138;24.746;2023-12-28T02:10:58;100826.50;;;8.31;83.05
4745;BME280;2386;42.138;24.746;2023-12-28T02:13:24;100814.97;;;8.37;83.16
4745;BME280;2386;42.138;24.746;2023-12-28T02:16:03;100825.66;;;8.30;84.14
4745;BME280;2386;42.138;24.746;2023-12-28T02:18:36;100831.66;;;8.40;82.40
4745;BME280;2386;42.138;24.746;2023-12-28T02:21:04;100821.22;;;8.37;82.26
4745;BME280;2386;42.138;24.746;2023-12-28T02:23:32;100818.13;;;8.40;82.91
4745;BME280;2386;42.138;24.746;2023-12-28T02:25:58;100831.81;;;8.24;82.77
4745;BME280;2386;42.138;24.746;2023-12-28T02:28:23;100826.41;;;7.95;86.51
4745;BME280;2386;42.138;24.746;2023-12-28T02:30:49;100824.91;;;8.21;84.65
4745;BME280;2386;42.138;24.746;2023-12-28T02:33:33;100825.31;;;8.33;83.31
4745;BME280;2386;42.138;24.746;2023-12-28T02:36:07;100826.88;;;8.28;84.11
4745;BME280;2386;42.138;24.746;2023-12-28T02:38:36;100831.06;;;8.30;84.43
4745;BME280;2386;42.138;24.746;2023-12-28T02:41:03;100835.84;;;8.13;85.51
4745;BME280;2386;42.138;24.746;2023-12-28T02:43:29;100842.34;;;8.04;86.88
4745;BME280;2386;42.138;24.746;2023-12-28T02:45:54;100846.06;;;8.03;86.69
4745;BME280;2386;42.138;24.746;2023-12-28T02:48:20;100839.47;;;8.06;86.42
4745;BME280;2386;42.138;24.746;2023-12-28T02:50:45;100840.84;;;8.31;84.46
4745;BME280;2386;42.138;24.746;2023-12-28T02:53:13;100841.25;;;8.43;83.76
4745;BME280;2386;42.138;24.746;2023-12-28T02:55:38;100841.72;;;8.17;85.26
4745;BME280;2386;42.138;24.746;2023-12-28T02:58:04;100851.22;;;8.13;86.79
4745;BME280;2386;42.138;24.746;2023-12-28T03:00:29;100846.47;;;8.15;86.45
4745;BME280;2386;42.138;24.746;2023-12-28T03:02:55;100841.31;;;8.20;85.83
4745;BME280;2386;42.138;24.746;2023-12-28T03:05:21;100843.09;;;8.13;86.99
4745;BME280;2386;42.138;24.746;2023-12-28T03:07:46;100849.31;;;7.99;88.65
4745;BME280;2386;42.138;24.746;2023-12-28T03:10:12;100840.56;;;7.97;88.61
4745;BME280;2386;42.138;24.746;2023-12-28T03:12:37;100845.88;;;8.19;86.77
4745;BME280;2386;42.138;24.746;2023-12-28T03:15:04;100849.25;;;8.07;88.31
4745;BME280;2386;42.138;24.746;2023-12-28T03:17:29;100843.56;;;8.02;89.69
4745;BME280;2386;42.138;24.746;2023-12-28T03:19:59;100848.59;;;8.05;88.38
4745;BME280;2386;42.138;24.746;2023-12-28T03:22:24;100845.66;;;7.91;90.29
4745;BME280;2386;42.138;24.746;2023-12-28T03:24:50;100837.56;;;7.91;90.50
4745;BME280;2386;42.138;24.746;2023-12-28T03:27:15;100841.06;;;7.77;91.52
4745;BME280;2386;42.138;24.746;2023-12-28T03:29:41;100821.59;;;7.67;91.30
4745;BME280;2386;42.138;24.746;2023-12-28T03:32:10;100819.16;;;7.35;91.21
4745;BME280;2386;42.138;24.746;2023-12-28T03:34:36;100819.78;;;7.22;94.02
4745;BME280;2386;42.138;24.746;2023-12-28T03:37:01;100823.00;;;7.40;94.09
4745;BME280;2386;42.138;24.746;2023-12-28T03:39:27;100812.56;;;7.37;94.57
4745;BME280;2386;42.138;24.746;2023-12-28T03:41:53;100821.22;;;7.33;93.49
4745;BME280;2386;42.138;24.746;2023-12-28T03:44:21;100820.34;;;7.55;92.86
4745;BME280;2386;42.138;24.746;2023-12-28T03:46:48;100825.97;;;7.68;90.50
4745;BME280;2386;42.138;24.746;2023-12-28T03:49:20;100820.88;;;7.50;91.84
4745;BME280;2386;42.138;24.746;2023-12-28T03:51:47;100828.97;;;7.50;92.17
4745;BME280;2386;42.138;24.746;2023-12-28T03:54:16;100830.94;;;7.42;92.96
4745;BME280;2386;42.138;24.746;2023-12-28T03:56:41;100840.56;;;7.59;92.52
4745;BME280;2386;42.138;24.746;2023-12-28T03:59:09;100834.72;;;7.70;90.28
4745;BME280;2386;42.138;24.746;2023-12-28T04:01:34;100838.44;;;7.69;89.27
4745;BME280;2386;42.138;24.746;2023-12-28T04:03:59;100835.63;;;7.63;91.41
4745;BME280;2386;42.138;24.746;2023-12-28T04:06:25;100830.53;;;7.45;92.63
4745;BME280;2386;42.138;24.746;2023-12-28T04:08:50;100829.59;;;7.38;93.78
4745;BME280;2386;42.138;24.746;2023-12-28T04:11:16;100824.94;;;7.32;93.10
4745;BME280;2386;42.138;24.746;2023-12-28T04:13:41;100835.94;;;7.45;92.01
4745;BME280;2386;42.138;24.746;2023-12-28T04:16:06;100839.88;;;7.42;91.36
4745;BME280;2386;42.138;24.746;2023-12-28T04:18:32;100832.50;;;7.51;90.41
4745;BME280;2386;42.138;24.746;2023-12-28T04:20:58;100848.41;;;7.69;88.49
4745;BME280;2386;42.138;24.746;2023-12-28T04:23:24;100833.75;;;7.63;86.60
4745;BME280;2386;42.138;24.746;2023-12-28T04:25:49;100840.13;;;7.70;86.27
4745;BME280;2386;42.138;24.746;2023-12-28T04:28:15;100844.19;;;7.66;86.20
4745;BME280;2386;42.138;24.746;2023-12-28T04:30:40;100846.31;;;7.56;87.64
4745;BME280;2386;42.138;24.746;2023-12-28T04:33:06;100845.72;;;7.46;89.33
4745;BME280;2386;42.138;24.746;2023-12-28T04:35:31;100863.03;;;7.37;88.73
4745;BME280;2386;42.138;24.746;2023-12-28T04:37:57;100861.63;;;7.41;88.88
4745;BME280;2386;42.138;24.746;2023-12-28T04:40:22;100871.31;;;7.50;85.75
4745;BME280;2386;42.138;24.746;2023-12-28T04:42:47;100863.16;;;7.58;84.68
4745;BME280;2386;42.138;24.746;2023-12-28T04:45:13;100866.84;;;7.42;86.63
4745;BME280;2386;42.138;24.746;2023-12-28T04:47:39;100859.38;;;7.44;87.20
4745;BME280;2386;42.138;24.746;2023-12-28T04:50:04;100856.34;;;7.47;86.43
4745;BME280;2386;42.138;24.746;2023-12-28T04:52:31;100860.03;;;7.69;84.79
4745;BME280;2386;42.138;24.746;2023-12-28T04:54:56;100850.69;;;7.57;84.07
4745;BME280;2386;42.138;24.746;2023-12-28T04:57:22;100856.38;;;7.62;83.64
4745;BME280;2386;42.138;24.746;2023-12-28T04:59:50;100859.16;;;7.54;83.25
4745;BME280;2386;42.138;24.746;2023-12-28T05:02:15;100845.44;;;7.41;82.54
4745;BME280;2386;42.138;24.746;2023-12-28T05:04:41;100863.56;;;7.32;82.83
4745;BME280;2386;42.138;24.746;2023-12-28T05:07:06;100862.47;;;7.41;83.28
4745;BME280;2386;42.138;24.746;2023-12-28T05:09:32;100856.34;;;7.47;81.29
4745;BME280;2386;42.138;24.746;2023-12-28T05:11:57;100843.94;;;7.38;81.55
4745;BME280;2386;42.138;24.746;2023-12-28T05:14:23;100856.16;;;7.49;80.70
4745;BME280;2386;42.138;24.746;2023-12-28T05:16:48;100855.00;;;7.43;81.20
4745;BME280;2386;42.138;24.746;2023-12-28T05:19:13;100852.97;;;7.45;80.61
4745;BME280;2386;42.138;24.746;2023-12-28T05:21:39;100846.47;;;7.40;80.60
4745;BME280;2386;42.138;24.746;2023-12-28T05:24:05;100853.59;;;7.33;81.45
4745;BME280;2386;42.138;24.746;2023-12-28T05:26:30;100847.97;;;7.42;80.14
4745;BME280;2386;42.138;24.746;2023-12-28T05:28:56;100838.72;;;7.37;80.84
4745;BME280;2386;42.138;24.746;2023-12-28T05:31:21;100840.03;;;7.41;80.51
4745;BME280;2386;42.138;24.746;2023-12-28T05:33:47;100847.03;;;7.50;78.74
4745;BME280;2386;42.138;24.746;2023-12-28T05:36:12;100852.78;;;7.47;79.13
4745;BME280;2386;42.138;24.746;2023-12-28T05:38:38;100847.53;;;7.31;81.39
4745;BME280;2386;42.138;24.746;2023-12-28T05:41:03;100854.38;;;7.18;82.22
4745;BME280;2386;42.138;24.746;2023-12-28T05:43:29;100852.50;;;6.88;84.62
4745;BME280;2386;42.138;24.746;2023-12-28T05:45:54;100853.09;;;7.06;84.51
4745;BME280;2386;42.138;24.746;2023-12-28T05:48:19;100854.63;;;7.01;84.63
4745;BME280;2386;42.138;24.746;2023-12-28T05:50:45;100860.91;;;7.24;83.03
4745;BME280;2386;42.138;24.746;2023-12-28T05:53:10;100858.50;;;7.29;82.53
4745;BME280;2386;42.138;24.746;2023-12-28T05:55:42;100847.47;;;7.16;82.97
4745;BME280;2386;42.138;24.746;2023-12-28T05:58:08;100861.38;;;7.28;82.30
4745;BME280;2386;42.138;24.746;2023-12-28T06:00:34;100873.03;;;7.28;81.93
4745;BME280;2386;42.138;24.746;2023-12-28T06:03:01;100865.81;;;7.20;82.29
4745;BME280;2386;42.138;24.746;2023-12-28T06:05:26;100873.88;;;7.29;81.93
4745;BME280;2386;42.138;24.746;2023-12-28T06:07:52;100867.31;;;7.23;82.24
4745;BME280;2386;42.138;24.746;2023-12-28T06:10:17;100865.50;;;6.84;84.11
4745;BME280;2386;42.138;24.746;2023-12-28T06:12:42;100871.19;;;6.58;87.27
4745;BME280;2386;42.138;24.746;2023-12-28T06:15:08;100867.31;;;6.61;88.98
4745;BME280;2386;42.138;24.746;2023-12-28T06:17:34;100872.53;;;6.63;89.68
4745;BME280;2386;42.138;24.746;2023-12-28T06:19:59;100872.88;;;6.59;91.13
4745;BME280;2386;42.138;24.746;2023-12-28T06:22:24;100870.16;;;6.68;90.91
4745;BME280;2386;42.138;24.746;2023-12-28T06:24:55;100881.78;;;6.68;90.81
4745;BME280;2386;42.138;24.746;2023-12-28T06:27:21;100872.13;;;6.74;90.00
4745;BME280;2386;42.138;24.746;2023-12-28T06:29:47;100888.91;;;6.92;88.94
4745;BME280;2386;42.138;24.746;2023-12-28T06:32:14;100880.28;;;6.97;88.13
4745;BME280;2386;42.138;24.746;2023-12-28T06:34:39;100887.66;;;7.03;88.42
4745;BME280;2386;42.138;24.746;2023-12-28T06:37:05;100889.44;;;7.18;87.73
4745;BME280;2386;42.138;24.746;2023-12-28T06:39:30;100890.41;;;7.25;87.46
4745;BME280;2386;42.138;24.746;2023-12-28T06:41:55;100894.66;;;7.20;89.36
4745;BME280;2386;42.138;24.746;2023-12-28T06:44:21;100893.47;;;7.22;88.31
4745;BME280;2386;42.138;24.746;2023-12-28T06:46:46;100877.75;;;7.26;88.67
4745;BME280;2386;42.138;24.746;2023-12-28T06:49:12;100895.81;;;7.25;90.61
4745;BME280;2386;42.138;24.746;2023-12-28T06:51:37;100895.81;;;7.25;91.45
4745;BME280;2386;42.138;24.746;2023-12-28T06:54:03;100898.09;;;7.37;92.23
4745;BME280;2386;42.138;24.746;2023-12-28T06:56:28;100894.47;;;7.44;91.25
4745;BME280;2386;42.138;24.746;2023-12-28T06:58:54;100906.28;;;7.20;92.39
4745;BME280;2386;42.138;24.746;2023-12-28T07:01:19;100901.56;;;7.22;92.69
4745;BME280;2386;42.138;24.746;2023-12-28T07:03:44;100902.22;;;7.24;92.90
4745;BME280;2386;42.138;24.746;2023-12-28T07:06:10;100906.25;;;7.29;94.23
4745;BME280;2386;42.138;24.746;2023-12-28T07:08:35;100904.56;;;7.28;93.92
4745;BME280;2386;42.138;24.746;2023-12-28T07:11:01;100900.84;;;7.51;91.84
4745;BME280;2386;42.138;24.746;2023-12-28T07:13:27;100892.16;;;7.41;92.69
4745;BME280;2386;42.138;24.746;2023-12-28T07:15:53;100909.06;;;7.58;92.17
4745;BME280;2386;42.138;24.746;2023-12-28T07:18:19;100899.59;;;7.62;91.65
4745;BME280;2386;42.138;24.746;2023-12-28T07:20:44;100898.56;;;7.63;92.61
4745;BME280;2386;42.138;24.746;2023-12-28T07:23:09;100877.38;;;7.75;88.81
4745;BME280;2386;42.138;24.746;2023-12-28T07:25:35;100897.84;;;7.69;88.83
4745;BME280;2386;42.138;24.746;2023-12-28T07:28:01;100900.50;;;7.32;91.04
4745;BME280;2386;42.138;24.746;2023-12-28T07:30:26;100899.78;;;7.38;91.24
4745;BME280;2386;42.138;24.746;2023-12-28T07:32:51;100893.41;;;7.31;92.66
4745;BME280;2386;42.138;24.746;2023-12-28T07:35:17;100891.97;;;7.43;91.75
4745;BME280;2386;42.138;24.746;2023-12-28T07:37:43;100898.44;;;7.56;92.44
4745;BME280;2386;42.138;24.746;2023-12-28T07:40:11;100900.72;;;7.68;91.04
4745;BME280;2386;42.138;24.746;2023-12-28T07:42:36;100894.38;;;7.83;89.34
4745;BME280;2386;42.138;24.746;2023-12-28T07:45:02;100901.59;;;8.06;86.93
4745;BME280;2386;42.138;24.746;2023-12-28T07:47:27;100909.06;;;8.04;87.51
4745;BME280;2386;42.138;24.746;2023-12-28T07:49:53;100908.41;;;8.02;87.04
4745;BME280;2386;42.138;24.746;2023-12-28T07:52:18;100907.06;;;7.98;86.24
4745;BME280;2386;42.138;24.746;2023-12-28T07:54:43;100909.47;;;7.93;86.83
4745;BME280;2386;42.138;24.746;2023-12-28T07:57:09;100905.69;;;8.02;87.21
4745;BME280;2386;42.138;24.746;2023-12-28T07:59:34;100906.34;;;8.04;87.73
4745;BME280;2386;42.138;24.746;2023-12-28T08:02:00;100910.19;;;8.24;86.42
4745;BME280;2386;42.138;24.746;2023-12-28T08:04:25;100910.00;;;8.25;85.03
4745;BME280;2386;42.138;24.746;2023-12-28T08:06:50;100911.69;;;8.27;84.06
4745;BME280;2386;42.138;24.746;2023-12-28T08:09:16;100906.03;;;8.36;83.78
4745;BME280;2386;42.138;24.746;2023-12-28T08:11:41;100899.06;;;8.42;83.49
4745;BME280;2386;42.138;24.746;2023-12-28T08:14:07;100909.16;;;8.25;82.61
4745;BME280;2386;42.138;24.746;2023-12-28T08:16:32;100902.91;;;8.10;84.64
4745;BME280;2386;42.138;24.746;2023-12-28T08:18:57;100915.69;;;8.16;85.07
4745;BME280;2386;42.138;24.746;2023-12-28T08:21:23;100907.84;;;8.21;85.90
4745;BME280;2386;42.138;24.746;2023-12-28T08:23:48;100917.97;;;8.42;83.85
4745;BME280;2386;42.138;24.746;2023-12-28T08:26:14;100913.88;;;8.46;84.04
4745;BME280;2386;42.138;24.746;2023-12-28T08:28:39;100906.72;;;8.53;83.95
4745;BME280;2386;42.138;24.746;2023-12-28T08:31:05;100913.44;;;8.57;82.96
4745;BME280;2386;42.138;24.746;2023-12-28T08:33:32;100916.50;;;8.69;83.64
4745;BME280;2386;42.138;24.746;2023-12-28T08:35:58;100915.03;;;8.66;82.91
4745;BME280;2386;42.138;24.746;2023-12-28T08:38:23;100910.16;;;8.62;81.74
4745;BME280;2386;42.138;24.746;2023-12-28T08:40:49;100916.59;;;8.61;82.10
4745;BME280;2386;42.138;24.746;2023-12-28T08:43:14;100909.16;;;8.63;81.65
4745;BME280;2386;42.138;24.746;2023-12-28T08:45:40;100914.19;;;8.80;82.33
4745;BME280;2386;42.138;24.746;2023-12-28T08:48:05;100892.63;;;8.87;81.49
4745;BME280;2386;42.138;24.746;2023-12-28T08:50:31;100910.03;;;8.99;79.69
4745;BME280;2386;42.138;24.746;2023-12-28T08:52:56;100886.97;;;9.03;80.52
4745;BME280;2386;42.138;24.746;2023-12-28T08:55:22;100884.16;;;9.11;81.17
4745;BME280;2386;42.138;24.746;2023-12-28T08:57:48;100891.69;;;9.31;80.70
4745;BME280;2386;42.138;24.746;2023-12-28T09:00:14;100876.47;;;9.30;77.71
4745;BME280;2386;42.138;24.746;2023-12-28T09:02:40;100872.47;;;9.47;75.08
4745;BME280;2386;42.138;24.746;2023-12-28T09:05:06;100873.78;;;9.51;74.47
4745;BME280;2386;42.138;24.746;2023-12-28T09:07:32;100864.13;;;9.70;75.11
4745;BME280;2386;42.138;24.746;2023-12-28T09:09:57;100860.19;;;9.72;75.54
4745;BME280;2386;42.138;24.746;2023-12-28T09:12:23;100863.09;;;9.71;73.88
4745;BME280;2386;42.138;24.746;2023-12-28T09:14:48;100849.16;;;9.74;73.19
4745;BME280;2386;42.138;24.746;2023-12-28T09:17:13;100852.84;;;9.87;73.61
4745;BME280;2386;42.138;24.746;2023-12-28T09:19:39;100847.53;;;10.01;70.48
4745;BME280;2386;42.138;24.746;2023-12-28T09:22:06;100845.09;;;10.12;71.10
4745;BME280;2386;42.138;24.746;2023-12-28T09:24:31;100846.06;;;10.26;69.79
4745;BME280;2386;42.138;24.746;2023-12-28T09:26:56;100840.41;;;10.21;70.44
4745;BME280;2386;42.138;24.746;2023-12-28T09:29:22;100833.34;;;10.27;69.35
4745;BME280;2386;42.138;24.746;2023-12-28T09:31:47;100814.81;;;10.30;69.08
4745;BME280;2386;42.138;24.746;2023-12-28T09:34:13;100822.34;;;10.41;67.48
4745;BME280;2386;42.138;24.746;2023-12-28T09:36:38;100819.69;;;10.48;68.82
4745;BME280;2386;42.138;24.746;2023-12-28T09:39:04;100803.22;;;10.49;68.42
4745;BME280;2386;42.138;24.746;2023-12-28T09:41:34;100792.81;;;10.60;70.64
4745;BME280;2386;42.138;24.746;2023-12-28T09:44:14;100787.44;;;10.66;68.37
4745;BME280;2386;42.138;24.746;2023-12-28T09:46:43;100778.03;;;10.69;67.73
4745;BME280;2386;42.138;24.746;2023-12-28T09:49:11;100774.09;;;10.71;67.75
4745;BME280;2386;42.138;24.746;2023-12-28T09:51:36;100776.00;;;10.77;69.80
4745;BME280;2386;42.138;24.746;2023-12-28T09:54:05;100769.13;;;10.88;67.69
4745;BME280;2386;42.138;24.746;2023-12-28T09:56:31;100764.16;;;10.98;67.11
4745;BME280;2386;42.138;24.746;2023-12-28T09:58:57;100766.88;;;10.98;69.53
4745;BME280;2386;42.138;24.746;2023-12-28T10:01:24;100765.00;;;11.05;69.46
4745;BME280;2386;42.138;24.746;2023-12-28T10:03:49;100754.34;;;11.04;68.77
4745;BME280;2386;42.138;24.746;2023-12-28T10:06:15;100752.84;;;10.88;67.87
4745;BME280;2386;42.138;24.746;2023-12-28T10:08:48;100739.53;;;11.06;67.53
4745;BME280;2386;42.138;24.746;2023-12-28T10:11:18;100741.19;;;11.27;67.44
4745;BME280;2386;42.138;24.746;2023-12-28T10:13:44;100738.69;;;11.39;66.84
4745;BME280;2386;42.138;24.746;2023-12-28T10:16:13;100732.00;;;11.48;66.61
4745;BME280;2386;42.138;24.746;2023-12-28T10:18:43;100723.22;;;11.59;69.17
4745;BME280;2386;42.138;24.746;2023-12-28T10:21:09;100720.94;;;11.63;70.21
4745;BME280;2386;42.138;24.746;2023-12-28T10:23:34;100717.78;;;11.66;68.24
4745;BME280;2386;42.138;24.746;2023-12-28T10:26:00;100718.22;;;11.82;67.84
4745;BME280;2386;42.138;24.746;2023-12-28T10:28:26;100701.06;;;11.82;67.97
4745;BME280;2386;42.138;24.746;2023-12-28T10:30:55;100707.72;;;11.93;66.69
4745;BME280;2386;42.138;24.746;2023-12-28T10:33:24;100705.63;;;11.95;68.11
4745;BME280;2386;42.138;24.746;2023-12-28T10:35:52;100704.56;;;12.02;64.06
4745;BME280;2386;42.138;24.746;2023-12-28T10:38:20;100692.81;;;12.08;63.29
4745;BME280;2386;42.138;24.746;2023-12-28T10:40:46;100693.00;;;12.20;61.87
4745;BME280;2386;42.138;24.746;2023-12-28T10:43:16;100683.78;;;12.21;64.32
4745;BME280;2386;42.138;24.746;2023-12-28T10:45:46;100686.06;;;12.24;63.43
4745;BME280;2386;42.138;24.746;2023-12-28T10:48:12;100681.69;;;12.23;60.68
4745;BME280;2386;42.138;24.746;2023-12-28T10:50:48;100682.91;;;12.27;59.46
4745;BME280;2386;42.138;24.746;2023-12-28T10:58:49;100663.63;;;12.35;64.13
4745;BME280;2386;42.138;24.746;2023-12-28T11:01:31;100650.47;;;12.32;65.82
4745;BME280;2386;42.138;24.746;2023-12-28T11:04:24;100663.16;;;12.45;67.59
4745;BME280;2386;42.138;24.746;2023-12-28T11:06:53;100642.31;;;12.32;64.27
4745;BME280;2386;42.138;24.746;2023-12-28T11:09:20;100662.75;;;12.48;65.12
4745;BME280;2386;42.138;24.746;2023-12-28T11:11:47;100645.19;;;12.44;65.95
4745;BME280;2386;42.138;24.746;2023-12-28T11:14:16;100618.78;;;12.44;65.55
4745;BME280;2386;42.138;24.746;2023-12-28T11:16:43;100624.19;;;12.51;66.05
4745;BME280;2386;42.138;24.746;2023-12-28T11:19:09;100624.59;;;12.55;66.19
4745;BME280;2386;42.138;24.746;2023-12-28T11:21:35;100619.78;;;12.57;64.22
4745;BME280;2386;42.138;24.746;2023-12-28T11:24:01;100615.09;;;12.64;63.33
4745;BME280;2386;42.138;24.746;2023-12-28T11:26:27;100612.75;;;12.67;61.91
4745;BME280;2386;42.138;24.746;2023-12-28T11:29:05;100606.25;;;12.68;61.57
4745;BME280;2386;42.138;24.746;2023-12-28T11:31:35;100603.94;;;12.72;61.64
4745;BME280;2386;42.138;24.746;2023-12-28T11:34:04;100598.09;;;12.68;59.97
4745;BME280;2386;42.138;24.746;2023-12-28T11:36:34;100590.75;;;12.69;59.72
4745;BME280;2386;42.138;24.746;2023-12-28T11:39:06;100590.50;;;12.77;58.29
4745;BME280;2386;42.138;24.746;2023-12-28T11:41:38;100584.59;;;12.80;57.86
4745;BME280;2386;42.138;24.746;2023-12-28T11:44:04;100593.56;;;12.87;58.96
4745;BME280;2386;42.138;24.746;2023-12-28T11:46:31;100587.34;;;12.80;59.17
4745;BME280;2386;42.138;24.746;2023-12-28T11:49:07;100580.66;;;12.76;57.13
4745;BME280;2386;42.138;24.746;2023-12-28T11:51:35;100584.66;;;12.73;56.58
4745;BME280;2386;42.138;24.746;2023-12-28T11:54:02;100574.56;;;12.80;55.88
4745;BME280;2386;42.138;24.746;2023-12-28T11:56:29;100570.94;;;12.87;57.03
4745;BME280;2386;42.138;24.746;2023-12-28T11:58:54;100580.50;;;12.96;57.84
4745;BME280;2386;42.138;24.746;2023-12-28T12:01:20;100574.84;;;12.97;56.20
4745;BME280;2386;42.138;24.746;2023-12-28T12:03:45;100570.59;;;13.01;55.00
4745;BME280;2386;42.138;24.746;2023-12-28T12:06:10;100566.00;;;13.02;55.32
4745;BME280;2386;42.138;24.746;2023-12-28T12:08:36;100565.09;;;13.08;56.58
4745;BME280;2386;42.138;24.746;2023-12-28T12:11:02;100561.72;;;13.12;57.88
4745;BME280;2386;42.138;24.746;2023-12-28T12:13:30;100554.88;;;13.03;55.13
4745;BME280;2386;42.138;24.746;2023-12-28T12:15:56;100557.16;;;13.06;55.73
4745;BME280;2386;42.138;24.746;2023-12-28T12:18:22;100561.91;;;13.18;55.38
4745;BME280;2386;42.138;24.746;2023-12-28T12:20:48;100550.38;;;13.15;55.86
4745;BME280;2386;42.138;24.746;2023-12-28T12:23:14;100538.44;;;13.17;56.70
4745;BME280;2386;42.138;24.746;2023-12-28T12:25:40;100563.28;;;13.27;56.40
4745;BME280;2386;42.138;24.746;2023-12-28T12:28:06;100539.66;;;13.21;55.02
4745;BME280;2386;42.138;24.746;2023-12-28T12:30:31;100539.03;;;13.19;53.87
4745;BME280;2386;42.138;24.746;2023-12-28T12:32:57;100532.75;;;13.18;53.96
4745;BME280;2386;42.138;24.746;2023-12-28T12:35:22;100522.25;;;13.22;54.43
4745;BME280;2386;42.138;24.746;2023-12-28T12:37:48;100531.19;;;13.29;53.00
4745;BME280;2386;42.138;24.746;2023-12-28T12:40:17;100529.06;;;13.31;53.88
4745;BME280;2386;42.138;24.746;2023-12-28T12:42:54;100535.50;;;13.36;55.51
4745;BME280;2386;42.138;24.746;2023-12-28T12:45:20;100535.50;;;13.36;54.31
4745;BME280;2386;42.138;24.746;2023-12-28T12:47:49;100529.22;;;13.36;55.00
4745;BME280;2386;42.138;24.746;2023-12-28T12:50:16;100525.44;;;13.37;55.85
4745;BME280;2386;42.138;24.746;2023-12-28T12:52:42;100527.91;;;13.38;53.86
4745;BME280;2386;42.138;24.746;2023-12-28T12:55:12;100514.75;;;13.35;55.37
4745;BME280;2386;42.138;24.746;2023-12-28T12:57:39;100516.06;;;13.33;55.09
4745;BME280;2386;42.138;24.746;2023-12-28T13:00:05;100520.00;;;13.37;54.32
4745;BME280;2386;42.138;24.746;2023-12-28T13:02:34;100516.66;;;13.35;53.46
4745;BME280;2386;42.138;24.746;2023-12-28T13:05:02;100508.94;;;13.32;51.75
4745;BME280;2386;42.138;24.746;2023-12-28T13:07:27;100501.59;;;13.32;51.78
4745;BME280;2386;42.138;24.746;2023-12-28T13:09:52;100508.59;;;13.40;51.92